Time;durP1;ratioP1;P1;durP2;ratioP2;P2;SDS_P1;SDS_P2;PMS_P1;PMS_P2;Temp;Humidity;BMP_temperature;BMP_pressure;BME280_temperature;BME280_humidity;BME280_pressure;Samples;Min_cycle;Max_cycle;Signal;HPM_P1;HPM_P2
2021/12/28 00:01:24;;;;;;;21.80;10.50;;;;;;;;;;5010363;28;20091;-58
2021/12/28 00:03:53;;;;;;;24.27;12.65;;;;;;;;;;5012817;28;20064;-59
2021/12/28 00:06:19;;;;;;;19.98;10.98;;;;;;;;;;5025320;28;20131;-58
2021/12/28 00:08:48;;;;;;;23.20;11.45;;;;;;;;;;5013150;28;20032;-58
2021/12/28 00:11:16;;;;;;;18.27;10.15;;;;;;;;;;5031463;28;20115;-58
2021/12/28 00:13:43;;;;;;;20.35;9.43;;;;;;;;;;5031785;28;20033;-59
2021/12/28 00:18:46;;;;;;;18.55;10.27;;;;;;;;;;5023841;28;20040;-59
2021/12/28 00:21:16;;;;;;;21.10;10.10;;;;;;;;;;5029684;28;20143;-57
2021/12/28 00:23:42;;;;;;;20.27;9.50;;;;;;;;;;5013039;28;20064;-57
2021/12/28 00:26:11;;;;;;;17.67;10.50;;;;;;;;;;4995815;28;20041;-59
2021/12/28 00:28:36;;;;;;;17.63;9.60;;;;;;;;;;5030132;28;20067;-58
2021/12/28 00:31:03;;;;;;;19.52;9.73;;;;;;;;;;5025313;28;20111;-58
2021/12/28 00:33:31;;;;;;;20.80;10.48;;;;;;;;;;5013170;28;20071;-57
2021/12/28 00:35:59;;;;;;;23.80;10.82;;;;;;;;;;5026697;28;20032;-57
2021/12/28 00:38:25;;;;;;;21.05;9.98;;;;;;;;;;5030655;28;20059;-57
2021/12/28 00:40:52;;;;;;;19.23;9.40;;;;;;;;;;5012342;28;21019;-57
2021/12/28 00:43:18;;;;;;;25.35;11.18;;;;;;;;;;5028284;28;20051;-57
2021/12/28 00:45:44;;;;;;;34.65;14.90;;;;;;;;;;5029758;28;20021;-57
2021/12/28 00:48:09;;;;;;;31.33;13.52;;;;;;;;;;5029256;28;20534;-58
2021/12/28 00:50:35;;;;;;;22.80;10.95;;;;;;;;;;5013213;28;20054;-57
2021/12/28 00:53:02;;;;;;;31.67;14.65;;;;;;;;;;5026659;28;20032;-57
2021/12/28 00:55:30;;;;;;;22.27;12.25;;;;;;;;;;5012278;28;20106;-56
2021/12/28 00:57:56;;;;;;;20.13;9.90;;;;;;;;;;5023773;28;20112;-56
2021/12/28 01:00:26;;;;;;;18.92;10.43;;;;;;;;;;5016256;28;20017;-57
2021/12/28 01:02:52;;;;;;;20.88;10.02;;;;;;;;;;5010490;28;20726;-57
2021/12/28 01:05:21;;;;;;;20.83;10.27;;;;;;;;;;5010264;28;21155;-55
2021/12/28 01:07:47;;;;;;;22.70;10.95;;;;;;;;;;5029876;28;20037;-56
2021/12/28 01:10:17;;;;;;;17.77;9.77;;;;;;;;;;5008446;28;21534;-56
2021/12/28 01:12:46;;;;;;;25.58;11.18;;;;;;;;;;5030173;28;20033;-58
2021/12/28 01:15:14;;;;;;;21.80;11.25;;;;;;;;;;5011557;28;20056;-56
2021/12/28 01:17:42;;;;;;;25.30;11.13;;;;;;;;;;5011622;28;20531;-57
2021/12/28 01:20:10;;;;;;;24.58;11.32;;;;;;;;;;5033298;28;20017;-56
2021/12/28 01:22:38;;;;;;;28.13;12.73;;;;;;;;;;5015966;28;20037;-56
2021/12/28 01:25:11;;;;;;;25.50;12.50;;;;;;;;;;5028763;28;20041;-56
2021/12/28 01:27:41;;;;;;;25.67;11.80;;;;;;;;;;5015323;28;20060;-58
2021/12/28 01:30:10;;;;;;;25.13;12.07;;;;;;;;;;5031700;28;20033;-57
2021/12/28 01:32:38;;;;;;;25.33;12.30;;;;;;;;;;5032074;28;20044;-57
2021/12/28 01:35:12;;;;;;;25.73;12.93;;;;;;;;;;5032175;28;20028;-57
2021/12/28 01:37:40;;;;;;;24.25;12.02;;;;;;;;;;5032411;28;20739;-56
2021/12/28 01:40:10;;;;;;;25.15;13.07;;;;;;;;;;5015162;28;20151;-57
2021/12/28 01:42:57;;;;;;;30.27;12.95;;;;;;;;;;5027758;28;21150;-57
2021/12/28 01:45:37;;;;;;;24.55;12.48;;;;;;;;;;5027746;28;20037;-58
2021/12/28 01:48:03;;;;;;;33.50;13.52;;;;;;;;;;5006147;28;20159;-56
2021/12/28 01:50:31;;;;;;;29.98;13.48;;;;;;;;;;5032801;28;20063;-57
2021/12/28 01:53:00;;;;;;;32.00;14.50;;;;;;;;;;5032530;28;20036;-58
2021/12/28 01:55:25;;;;;;;33.03;13.15;;;;;;;;;;5031939;28;20056;-56
2021/12/28 01:57:53;;;;;;;32.70;14.50;;;;;;;;;;5032101;28;20037;-56
2021/12/28 02:00:22;;;;;;;31.52;14.68;;;;;;;;;;5033032;28;20033;-57
2021/12/28 02:02:50;;;;;;;29.30;14.48;;;;;;;;;;5033382;28;20041;-57
2021/12/28 02:05:15;;;;;;;39.13;13.93;;;;;;;;;;5001654;28;20032;-56
2021/12/28 02:07:48;;;;;;;34.35;14.93;;;;;;;;;;5010782;28;20064;-57
2021/12/28 02:10:16;;;;;;;33.67;15.30;;;;;;;;;;5032092;28;20032;-56
2021/12/28 02:12:47;;;;;;;34.47;15.15;;;;;;;;;;5013461;28;20028;-57
2021/12/28 02:15:15;;;;;;;39.38;14.10;;;;;;;;;;4994565;28;20028;-57
2021/12/28 02:17:43;;;;;;;39.42;15.75;;;;;;;;;;4997939;28;20032;-55
2021/12/28 02:20:14;;;;;;;42.63;16.48;;;;;;;;;;5030831;28;20024;-56
2021/12/28 02:22:45;;;;;;;37.45;15.85;;;;;;;;;;5032146;28;20037;-56
2021/12/28 02:25:14;;;;;;;48.88;17.15;;;;;;;;;;5028323;28;20068;-56
2021/12/28 02:27:44;;;;;;;42.70;16.58;;;;;;;;;;5013158;28;20265;-58
2021/12/28 02:30:19;;;;;;;39.40;16.63;;;;;;;;;;5011122;28;20206;-57
2021/12/28 02:32:50;;;;;;;40.55;16.88;;;;;;;;;;5030698;28;20029;-57
2021/12/28 02:35:19;;;;;;;46.00;18.27;;;;;;;;;;5026284;28;20040;-57
2021/12/28 02:37:48;;;;;;;43.15;16.15;;;;;;;;;;5010833;28;20095;-56
2021/12/28 02:40:19;;;;;;;44.47;16.08;;;;;;;;;;5011277;28;20679;-56
2021/12/28 02:42:50;;;;;;;57.72;17.52;;;;;;;;;;5030621;28;20368;-57
2021/12/28 02:45:22;;;;;;;39.53;16.42;;;;;;;;;;5007012;28;20028;-57
2021/12/28 02:47:52;;;;;;;55.45;18.00;;;;;;;;;;5028460;28;21235;-57
2021/12/28 02:50:22;;;;;;;45.65;16.88;;;;;;;;;;5031404;28;20082;-57
2021/12/28 02:52:47;;;;;;;49.45;17.75;;;;;;;;;;5033461;28;20555;-57
2021/12/28 02:55:16;;;;;;;47.53;18.17;;;;;;;;;;5012462;28;20037;-56
2021/12/28 02:57:51;;;;;;;35.28;15.85;;;;;;;;;;5031666;28;20031;-57
2021/12/28 03:00:31;;;;;;;47.05;18.00;;;;;;;;;;5030189;28;20040;-57
2021/12/28 03:02:59;;;;;;;51.08;18.65;;;;;;;;;;5029623;28;22804;-57
2021/12/28 03:05:27;;;;;;;44.83;19.75;;;;;;;;;;5013365;28;20037;-57
2021/12/28 03:07:55;;;;;;;38.90;15.88;;;;;;;;;;5024511;28;20040;-57
2021/12/28 03:10:23;;;;;;;53.67;17.88;;;;;;;;;;5012923;28;20033;-57
2021/12/28 03:12:48;;;;;;;48.92;18.60;;;;;;;;;;5030955;28;20040;-57
2021/12/28 03:15:17;;;;;;;45.83;19.25;;;;;;;;;;5030122;28;20067;-57
2021/12/28 03:17:45;;;;;;;44.70;18.30;;;;;;;;;;4997362;28;20036;-57
2021/12/28 03:20:14;;;;;;;48.10;18.33;;;;;;;;;;5013170;28;20380;-57
2021/12/28 03:22:42;;;;;;;43.30;16.55;;;;;;;;;;5000439;28;20040;-57
2021/12/28 03:25:15;;;;;;;35.08;15.93;;;;;;;;;;5026593;28;20127;-57
2021/12/28 03:27:43;;;;;;;40.72;18.25;;;;;;;;;;4997960;28;20048;-57
2021/12/28 03:30:10;;;;;;;42.53;17.63;;;;;;;;;;5031706;28;20430;-57
2021/12/28 03:32:38;;;;;;;43.25;17.90;;;;;;;;;;5030074;28;20733;-57
2021/12/28 03:35:06;;;;;;;45.85;18.52;;;;;;;;;;5013646;28;20039;-57
2021/12/28 03:37:32;;;;;;;50.22;18.77;;;;;;;;;;5012129;28;20461;-57
2021/12/28 03:40:01;;;;;;;41.10;17.55;;;;;;;;;;5029978;28;20020;-57
2021/12/28 03:42:30;;;;;;;51.92;19.83;;;;;;;;;;5028947;28;20707;-57
2021/12/28 03:45:01;;;;;;;49.03;18.90;;;;;;;;;;5011898;28;20041;-57
2021/12/28 03:47:26;;;;;;;44.67;18.02;;;;;;;;;;5026902;28;20032;-57
2021/12/28 03:49:52;;;;;;;52.65;20.05;;;;;;;;;;5024550;28;20029;-57
2021/12/28 03:52:19;;;;;;;43.72;19.05;;;;;;;;;;5025465;28;20037;-57
2021/12/28 03:54:45;;;;;;;49.10;18.70;;;;;;;;;;4996801;28;20041;-57
2021/12/28 03:57:12;;;;;;;44.80;19.55;;;;;;;;;;5030672;28;20029;-57
2021/12/28 03:59:40;;;;;;;49.42;19.60;;;;;;;;;;4996328;28;20039;-57
2021/12/28 04:02:06;;;;;;;45.72;17.42;;;;;;;;;;5011400;28;20040;-57
2021/12/28 04:04:36;;;;;;;42.85;17.10;;;;;;;;;;5010846;28;20017;-57
2021/12/28 04:07:07;;;;;;;41.53;19.08;;;;;;;;;;5030762;28;20036;-57
2021/12/28 04:12:22;;;;;;;56.28;18.58;;;;;;;;;;5012531;28;20041;-57
2021/12/28 04:14:53;;;;;;;42.70;17.02;;;;;;;;;;5027802;28;21966;-57
2021/12/28 04:17:26;;;;;;;42.45;18.45;;;;;;;;;;5029240;28;20508;-57
2021/12/28 04:19:52;;;;;;;39.95;17.63;;;;;;;;;;5026609;28;20021;-57
2021/12/28 04:22:17;;;;;;;55.40;19.80;;;;;;;;;;5006850;28;20550;-57
2021/12/28 04:24:48;;;;;;;46.28;19.70;;;;;;;;;;5024327;28;20104;-57
2021/12/28 04:27:18;;;;;;;55.22;19.20;;;;;;;;;;5010259;28;20053;-57
2021/12/28 04:29:46;;;;;;;55.72;18.58;;;;;;;;;;5025733;28;20080;-57
2021/12/28 04:32:16;;;;;;;49.35;18.73;;;;;;;;;;5010550;28;20029;-57
2021/12/28 04:34:44;;;;;;;44.30;17.63;;;;;;;;;;5009096;28;20044;-58
2021/12/28 04:37:10;;;;;;;53.88;18.15;;;;;;;;;;5029610;28;20488;-57
2021/12/28 04:39:36;;;;;;;54.03;18.42;;;;;;;;;;5028642;28;20116;-57
2021/12/28 04:42:04;;;;;;;50.05;17.90;;;;;;;;;;5029332;28;20643;-57
2021/12/28 04:44:29;;;;;;;54.10;17.95;;;;;;;;;;5013403;28;20037;-57
2021/12/28 04:46:55;;;;;;;44.85;18.42;;;;;;;;;;4995088;28;20037;-57
2021/12/28 04:49:22;;;;;;;55.20;18.42;;;;;;;;;;5028469;28;20691;-58
2021/12/28 04:51:50;;;;;;;54.80;18.75;;;;;;;;;;5027142;28;20016;-58
2021/12/28 04:54:22;;;;;;;49.97;18.65;;;;;;;;;;5032752;28;20484;-58
2021/12/28 04:56:50;;;;;;;51.13;18.92;;;;;;;;;;5033057;28;20631;-58
2021/12/28 04:59:21;;;;;;;53.60;17.55;;;;;;;;;;5032951;28;20021;-56
2021/12/28 05:01:49;;;;;;;42.90;17.13;;;;;;;;;;5033789;28;20029;-56
2021/12/28 05:04:17;;;;;;;59.35;19.48;;;;;;;;;;5032747;28;20025;-57
2021/12/28 05:06:45;;;;;;;54.47;17.92;;;;;;;;;;5030598;28;20705;-57
2021/12/28 05:09:11;;;;;;;58.50;18.52;;;;;;;;;;5033741;28;20064;-56
2021/12/28 05:11:41;;;;;;;49.75;18.20;;;;;;;;;;5032997;28;20029;-57
2021/12/28 05:14:10;;;;;;;61.50;19.55;;;;;;;;;;5032994;28;20048;-56
2021/12/28 05:16:39;;;;;;;55.28;19.33;;;;;;;;;;5017367;28;20024;-57
2021/12/28 05:19:06;;;;;;;51.25;19.25;;;;;;;;;;5014349;28;20040;-58
2021/12/28 05:21:35;;;;;;;52.28;19.63;;;;;;;;;;5029695;28;20039;-56
2021/12/28 05:24:03;;;;;;;66.38;21.10;;;;;;;;;;5015864;28;20155;-57
2021/12/28 05:26:35;;;;;;;50.80;19.73;;;;;;;;;;5033134;28;20037;-57
2021/12/28 05:29:04;;;;;;;58.35;19.25;;;;;;;;;;5031083;28;20566;-57
2021/12/28 05:31:31;;;;;;;45.55;18.58;;;;;;;;;;5027155;28;20029;-57
2021/12/28 05:33:57;;;;;;;63.13;19.05;;;;;;;;;;5029573;28;20151;-57
2021/12/28 05:36:25;;;;;;;54.25;20.02;;;;;;;;;;4995185;28;20033;-56
2021/12/28 05:38:56;;;;;;;51.50;17.48;;;;;;;;;;5016476;28;20992;-58
2021/12/28 05:41:21;;;;;;;65.95;19.48;;;;;;;;;;4994814;28;20133;-58
2021/12/28 05:43:47;;;;;;;53.70;18.50;;;;;;;;;;5032189;28;20029;-57
2021/12/28 05:46:15;;;;;;;54.10;18.65;;;;;;;;;;4999272;28;20491;-56
2021/12/28 05:48:47;;;;;;;44.85;18.17;;;;;;;;;;5011397;28;20622;-60
2021/12/28 05:51:15;;;;;;;55.90;19.67;;;;;;;;;;5013716;28;20052;-58
2021/12/28 05:53:45;;;;;;;60.17;19.38;;;;;;;;;;4996812;28;20025;-58
2021/12/28 05:56:22;;;;;;;51.13;19.88;;;;;;;;;;5032149;28;20402;-58
2021/12/28 05:58:51;;;;;;;47.88;18.40;;;;;;;;;;4994791;28;20115;-58
2021/12/28 06:01:17;;;;;;;51.42;19.05;;;;;;;;;;5015618;28;20020;-58
2021/12/28 06:03:47;;;;;;;44.95;16.90;;;;;;;;;;5013593;28;20044;-57
2021/12/28 06:06:16;;;;;;;46.78;16.70;;;;;;;;;;5032080;28;20039;-57
2021/12/28 06:08:43;;;;;;;58.38;19.58;;;;;;;;;;5033156;28;20203;-57
2021/12/28 06:11:14;;;;;;;47.63;17.75;;;;;;;;;;5016500;28;20029;-57
2021/12/28 06:13:42;;;;;;;38.83;16.02;;;;;;;;;;5030392;28;20048;-57
2021/12/28 06:16:09;;;;;;;47.35;16.85;;;;;;;;;;5014197;28;20032;-58
2021/12/28 06:18:34;;;;;;;40.78;17.45;;;;;;;;;;5030872;28;20047;-58
2021/12/28 06:21:02;;;;;;;49.63;18.77;;;;;;;;;;4996086;28;20039;-57
2021/12/28 06:23:30;;;;;;;49.47;17.38;;;;;;;;;;5011126;28;20041;-58
2021/12/28 06:25:55;;;;;;;44.10;17.50;;;;;;;;;;5031024;28;20029;-58
2021/12/28 06:28:24;;;;;;;50.10;17.92;;;;;;;;;;5029416;28;20025;-58
2021/12/28 06:30:53;;;;;;;46.42;16.02;;;;;;;;;;5034382;28;20040;-57
2021/12/28 06:33:25;;;;;;;46.15;17.48;;;;;;;;;;4997075;28;20066;-57
2021/12/28 06:35:54;;;;;;;41.63;15.30;;;;;;;;;;5014426;28;20032;-58
2021/12/28 06:38:20;;;;;;;43.15;15.55;;;;;;;;;;5030961;28;20120;-57
2021/12/28 06:40:50;;;;;;;43.83;14.25;;;;;;;;;;5032161;28;20068;-57
2021/12/28 06:43:15;;;;;;;49.33;17.05;;;;;;;;;;5011807;28;20187;-57
2021/12/28 06:45:51;;;;;;;45.92;16.83;;;;;;;;;;5031009;28;20068;-57
2021/12/28 06:48:17;;;;;;;40.97;16.58;;;;;;;;;;5031221;28;20113;-58
2021/12/28 06:50:44;;;;;;;40.53;15.90;;;;;;;;;;5010796;28;20480;-57
2021/12/28 06:53:12;;;;;;;38.30;15.00;;;;;;;;;;5030559;28;20033;-57
2021/12/28 06:55:41;;;;;;;43.70;15.25;;;;;;;;;;5014766;28;20044;-57
2021/12/28 06:58:09;;;;;;;39.70;17.02;;;;;;;;;;5014762;28;20064;-58
2021/12/28 07:00:34;;;;;;;39.72;14.82;;;;;;;;;;5014447;28;20078;-58
2021/12/28 07:03:00;;;;;;;40.60;14.50;;;;;;;;;;5031211;28;20032;-57
2021/12/28 07:05:27;;;;;;;42.45;15.85;;;;;;;;;;5013987;28;20025;-57
2021/12/28 07:07:55;;;;;;;40.28;14.43;;;;;;;;;;4993659;28;20049;-58
2021/12/28 07:10:21;;;;;;;39.47;15.23;;;;;;;;;;5015078;28;20024;-58
2021/12/28 07:13:23;;;;;;;42.58;13.82;;;;;;;;;;5028411;28;20091;-59
2021/12/28 07:15:49;;;;;;;42.20;15.50;;;;;;;;;;5029276;28;20114;-58
2021/12/28 07:18:15;;;;;;;41.85;15.50;;;;;;;;;;5013112;28;20185;-57
2021/12/28 07:20:45;;;;;;;49.58;15.35;;;;;;;;;;5011664;28;20040;-57
2021/12/28 07:23:15;;;;;;;37.40;14.30;;;;;;;;;;5014201;28;20514;-58
2021/12/28 07:25:43;;;;;;;40.63;13.15;;;;;;;;;;5029002;28;20499;-58
2021/12/28 07:28:13;;;;;;;45.47;13.77;;;;;;;;;;5013061;28;20041;-59
2021/12/28 07:30:43;;;;;;;42.47;15.90;;;;;;;;;;5014007;28;20032;-58
2021/12/28 07:33:09;;;;;;;41.45;14.43;;;;;;;;;;5027009;28;20033;-59
2021/12/28 07:35:39;;;;;;;38.67;14.18;;;;;;;;;;5013065;28;20159;-58
2021/12/28 07:38:05;;;;;;;41.28;14.48;;;;;;;;;;5012923;28;20060;-58
2021/12/28 07:40:31;;;;;;;45.28;14.55;;;;;;;;;;4997704;28;20151;-58
2021/12/28 07:42:58;;;;;;;46.72;15.82;;;;;;;;;;5032406;28;20032;-58
2021/12/28 07:45:30;;;;;;;38.63;13.05;;;;;;;;;;5014042;28;20020;-58
2021/12/28 07:47:55;;;;;;;38.90;13.90;;;;;;;;;;4994307;28;20996;-58
2021/12/28 07:50:23;;;;;;;48.55;14.48;;;;;;;;;;5032292;28;20506;-58
2021/12/28 07:52:55;;;;;;;39.33;12.85;;;;;;;;;;5030058;28;20703;-59
2021/12/28 07:55:23;;;;;;;37.72;13.93;;;;;;;;;;4998612;28;20048;-57
2021/12/28 07:57:48;;;;;;;39.47;13.50;;;;;;;;;;5008284;28;20037;-58
2021/12/28 08:00:15;;;;;;;39.83;12.63;;;;;;;;;;5013958;28;20033;-58
2021/12/28 08:02:43;;;;;;;40.45;13.10;;;;;;;;;;5022880;28;21599;-58
2021/12/28 08:05:14;;;;;;;31.48;14.38;;;;;;;;;;5010101;28;20040;-59
2021/12/28 08:07:42;;;;;;;36.10;13.35;;;;;;;;;;5009001;28;20036;-58
2021/12/28 08:10:12;;;;;;;33.10;12.68;;;;;;;;;;5031722;28;22035;-58
2021/12/28 08:12:42;;;;;;;40.92;13.25;;;;;;;;;;5014018;28;20668;-58
2021/12/28 08:15:08;;;;;;;36.97;12.13;;;;;;;;;;5013791;28;20044;-58
2021/12/28 08:17:39;;;;;;;37.25;10.82;;;;;;;;;;5031159;28;20539;-59
2021/12/28 08:20:05;;;;;;;26.70;12.00;;;;;;;;;;5029066;28;20116;-58
2021/12/28 08:22:31;;;;;;;36.47;11.85;;;;;;;;;;5010555;28;20798;-59
2021/12/28 08:24:56;;;;;;;25.50;10.75;;;;;;;;;;5009894;28;20032;-58
2021/12/28 08:27:24;;;;;;;33.97;10.48;;;;;;;;;;5012965;28;20068;-58
2021/12/28 08:29:52;;;;;;;32.63;11.48;;;;;;;;;;5012424;28;20029;-58
2021/12/28 08:32:17;;;;;;;31.40;10.95;;;;;;;;;;5011973;28;22055;-58
2021/12/28 08:34:47;;;;;;;28.48;10.40;;;;;;;;;;5009002;28;20029;-57
2021/12/28 08:37:17;;;;;;;29.65;12.07;;;;;;;;;;5010652;28;20569;-58
2021/12/28 08:39:43;;;;;;;23.15;10.32;;;;;;;;;;5006535;28;20068;-58
2021/12/28 08:42:08;;;;;;;30.55;11.25;;;;;;;;;;5010597;28;20668;-58
2021/12/28 08:44:36;;;;;;;27.60;9.23;;;;;;;;;;4998652;28;20048;-58
2021/12/28 08:47:07;;;;;;;21.13;8.90;;;;;;;;;;5010337;28;20032;-59
2021/12/28 08:49:33;;;;;;;28.23;9.68;;;;;;;;;;5032984;28;20894;-58
2021/12/28 08:52:03;;;;;;;23.02;9.13;;;;;;;;;;5012169;28;20946;-57
2021/12/28 08:54:29;;;;;;;24.75;8.98;;;;;;;;;;5031114;28;20029;-57
2021/12/28 08:56:55;;;;;;;21.90;10.15;;;;;;;;;;5016693;28;20599;-59
2021/12/28 08:59:20;;;;;;;19.33;9.07;;;;;;;;;;5012035;28;20045;-58
2021/12/28 09:01:48;;;;;;;20.10;8.15;;;;;;;;;;5014649;28;20067;-58
2021/12/28 09:04:17;;;;;;;21.65;8.23;;;;;;;;;;5030379;28;20380;-57
2021/12/28 09:06:45;;;;;;;21.70;8.10;;;;;;;;;;5032809;28;20481;-58
2021/12/28 09:09:14;;;;;;;19.38;7.63;;;;;;;;;;5031848;28;20037;-58
2021/12/28 09:11:40;;;;;;;19.75;7.22;;;;;;;;;;5014677;28;20060;-58
2021/12/28 09:14:11;;;;;;;19.23;7.38;;;;;;;;;;5029261;28;20029;-57
2021/12/28 09:16:39;;;;;;;21.08;7.32;;;;;;;;;;5026359;28;20041;-59
2021/12/28 09:19:07;;;;;;;19.27;6.88;;;;;;;;;;5032054;28;21968;-57
2021/12/28 09:21:37;;;;;;;24.10;6.43;;;;;;;;;;5030766;28;20033;-58
2021/12/28 09:24:03;;;;;;;18.52;5.72;;;;;;;;;;5014194;28;20587;-58
2021/12/28 09:26:33;;;;;;;13.90;5.53;;;;;;;;;;4996771;28;20170;-58
2021/12/28 09:29:01;;;;;;;15.48;5.53;;;;;;;;;;5031218;28;20060;-58
2021/12/28 09:31:26;;;;;;;17.38;5.38;;;;;;;;;;5032163;28;20159;-58
2021/12/28 09:33:54;;;;;;;13.82;5.47;;;;;;;;;;5032005;28;20583;-58
2021/12/28 09:36:22;;;;;;;18.67;5.95;;;;;;;;;;5029645;28;20144;-58
2021/12/28 09:38:52;;;;;;;14.35;5.75;;;;;;;;;;5030990;28;20037;-59
2021/12/28 09:41:22;;;;;;;15.93;5.13;;;;;;;;;;5015984;28;20119;-58
2021/12/28 09:43:48;;;;;;;14.68;5.07;;;;;;;;;;4998931;28;20055;-58
2021/12/28 09:46:13;;;;;;;15.00;5.43;;;;;;;;;;5028013;28;21971;-58
2021/12/28 09:48:39;;;;;;;12.63;5.05;;;;;;;;;;5032499;28;20047;-59
2021/12/28 09:51:05;;;;;;;13.13;4.30;;;;;;;;;;4999943;28;20127;-57
2021/12/28 09:53:32;;;;;;;20.40;4.93;;;;;;;;;;5030596;28;20032;-58
2021/12/28 09:56:01;;;;;;;16.92;5.00;;;;;;;;;;5014339;28;20036;-58
2021/12/28 09:58:26;;;;;;;12.93;5.10;;;;;;;;;;5014748;28;20186;-57
2021/12/28 10:00:51;;;;;;;11.82;3.92;;;;;;;;;;5015344;28;20551;-57
2021/12/28 10:03:17;;;;;;;15.57;4.80;;;;;;;;;;5027261;28;20060;-57
2021/12/28 10:05:43;;;;;;;13.00;4.38;;;;;;;;;;5028032;28;20035;-58
2021/12/28 10:08:13;;;;;;;9.57;4.05;;;;;;;;;;5010243;28;21022;-57
2021/12/28 10:10:44;;;;;;;10.40;4.47;;;;;;;;;;5016408;28;20033;-57
2021/12/28 10:13:17;;;;;;;12.02;4.07;;;;;;;;;;5031910;28;20029;-58
2021/12/28 10:15:46;;;;;;;13.43;4.38;;;;;;;;;;5030210;28;20116;-58
2021/12/28 10:18:14;;;;;;;11.20;3.92;;;;;;;;;;5020165;28;20039;-57
2021/12/28 10:20:40;;;;;;;20.38;5.47;;;;;;;;;;5032758;28;20025;-58
2021/12/28 10:23:14;;;;;;;9.13;3.85;;;;;;;;;;5013771;28;20036;-58
2021/12/28 10:25:43;;;;;;;21.45;4.50;;;;;;;;;;5031669;28;20210;-58
2021/12/28 10:28:16;;;;;;;11.60;4.18;;;;;;;;;;5013873;28;20049;-58
2021/12/28 10:31:05;;;;;;;18.55;4.57;;;;;;;;;;5013423;28;20032;-58
2021/12/28 10:33:36;;;;;;;18.27;4.25;;;;;;;;;;5021370;28;20037;-57
2021/12/28 10:36:07;;;;;;;17.63;4.30;;;;;;;;;;5033460;28;20045;-59
2021/12/28 10:38:37;;;;;;;15.32;4.35;;;;;;;;;;5033547;28;20260;-58
2021/12/28 10:41:10;;;;;;;8.77;3.70;;;;;;;;;;5028540;28;20948;-58
2021/12/28 10:43:38;;;;;;;15.63;4.07;;;;;;;;;;5034733;28;20116;-58
2021/12/28 10:46:10;;;;;;;11.32;4.30;;;;;;;;;;5033054;28;20028;-58
2021/12/28 10:48:37;;;;;;;9.15;4.22;;;;;;;;;;5033868;28;20037;-58
2021/12/28 10:51:12;;;;;;;12.45;4.22;;;;;;;;;;5013352;28;20468;-57
2021/12/28 10:54:00;;;;;;;11.88;4.55;;;;;;;;;;5032247;28;20761;-57
2021/12/28 10:56:29;;;;;;;15.30;4.65;;;;;;;;;;4994521;28;20037;-57
2021/12/28 10:58:57;;;;;;;9.93;4.30;;;;;;;;;;5031241;28;20047;-57
2021/12/28 11:01:26;;;;;;;16.92;5.40;;;;;;;;;;5035051;28;20175;-57
2021/12/28 11:04:03;;;;;;;18.20;5.18;;;;;;;;;;5033101;28;20025;-58
2021/12/28 11:06:32;;;;;;;12.60;4.90;;;;;;;;;;5033140;28;20033;-61
2021/12/28 11:08:59;;;;;;;11.95;4.90;;;;;;;;;;5014606;28;20823;-57
2021/12/28 11:15:03;;;;;;;9.10;4.10;;;;;;;;;;5028268;28;20071;-61
2021/12/28 11:17:36;;;;;;;13.32;5.00;;;;;;;;;;5028560;28;20036;-57
2021/12/28 11:20:04;;;;;;;13.25;4.60;;;;;;;;;;5029912;28;20665;-57
2021/12/28 11:22:34;;;;;;;15.90;5.60;;;;;;;;;;5016843;28;20044;-57
2021/12/28 11:24:59;;;;;;;19.95;5.43;;;;;;;;;;5015983;28;20048;-56
2021/12/28 11:27:27;;;;;;;14.25;4.93;;;;;;;;;;5016491;28;20056;-57
2021/12/28 11:29:53;;;;;;;9.93;4.72;;;;;;;;;;5015784;28;20571;-57
2021/12/28 11:32:21;;;;;;;18.08;5.55;;;;;;;;;;5016231;28;20036;-56
2021/12/28 11:34:52;;;;;;;13.38;4.65;;;;;;;;;;5016282;28;20695;-57
2021/12/28 11:37:20;;;;;;;10.90;3.88;;;;;;;;;;5015007;28;20160;-56
2021/12/28 11:39:49;;;;;;;8.93;3.85;;;;;;;;;;5015835;28;20017;-57
2021/12/28 11:42:20;;;;;;;11.70;4.90;;;;;;;;;;5015149;28;20029;-57
2021/12/28 11:44:49;;;;;;;11.10;4.55;;;;;;;;;;5016700;28;20037;-57
2021/12/28 11:47:23;;;;;;;16.38;4.63;;;;;;;;;;5015164;28;20025;-57
2021/12/28 11:49:57;;;;;;;11.25;4.70;;;;;;;;;;5026192;28;20028;-56
2021/12/28 11:52:24;;;;;;;10.90;4.53;;;;;;;;;;5029944;28;20119;-57
2021/12/28 11:54:51;;;;;;;15.85;4.90;;;;;;;;;;5015881;28;20036;-57
2021/12/28 11:57:21;;;;;;;12.75;5.18;;;;;;;;;;5016128;28;20032;-57
2021/12/28 11:59:51;;;;;;;14.20;5.68;;;;;;;;;;5029115;28;20602;-57
2021/12/28 12:02:16;;;;;;;16.00;5.13;;;;;;;;;;5009268;28;20028;-58
2021/12/28 12:04:43;;;;;;;10.43;4.68;;;;;;;;;;5013883;28;20025;-58
2021/12/28 12:07:16;;;;;;;11.20;4.10;;;;;;;;;;5024048;28;20521;-58
2021/12/28 12:10:04;;;;;;;12.70;5.00;;;;;;;;;;5026086;28;20038;-58
2021/12/28 12:12:33;;;;;;;5.93;4.43;;;;;;;;;;5006009;28;20045;-57
2021/12/28 12:15:03;;;;;;;8.95;4.85;;;;;;;;;;5028819;28;20975;-57
2021/12/28 12:17:29;;;;;;;14.13;5.47;;;;;;;;;;5014095;28;20170;-58
2021/12/28 12:20:00;;;;;;;12.68;5.28;;;;;;;;;;5029785;28;20714;-58
2021/12/28 12:22:32;;;;;;;10.77;4.75;;;;;;;;;;5032423;28;20160;-57
2021/12/28 12:24:58;;;;;;;12.45;4.82;;;;;;;;;;5031465;28;20028;-57
2021/12/28 12:27:41;;;;;;;9.15;4.07;;;;;;;;;;5011771;28;20041;-58
2021/12/28 12:30:34;;;;;;;11.93;5.60;;;;;;;;;;5031468;28;20027;-58
2021/12/28 12:33:00;;;;;;;12.95;4.65;;;;;;;;;;5029760;28;20052;-56
2021/12/28 12:35:28;;;;;;;10.23;4.32;;;;;;;;;;5029519;28;20219;-57
2021/12/28 12:37:56;;;;;;;11.35;4.75;;;;;;;;;;4996830;28;20040;-57
2021/12/28 12:40:22;;;;;;;8.85;5.05;;;;;;;;;;5014556;28;20028;-57
2021/12/28 12:43:06;;;;;;;10.45;4.32;;;;;;;;;;5032902;28;20033;-57
2021/12/28 12:45:50;;;;;;;9.65;4.70;;;;;;;;;;5014581;28;20029;-57
2021/12/28 12:48:33;;;;;;;8.93;4.00;;;;;;;;;;5014563;28;20037;-56
2021/12/28 12:51:17;;;;;;;6.85;3.67;;;;;;;;;;5030089;28;20063;-57
2021/12/28 12:53:54;;;;;;;8.30;4.70;;;;;;;;;;5012773;28;20032;-56
2021/12/28 12:56:28;;;;;;;13.30;6.53;;;;;;;;;;5012478;28;20041;-57
2021/12/28 12:58:54;;;;;;;;;;;;;;;;;;5028899;28;22090;-60
2021/12/28 13:01:24;;;;;;;5.82;4.07;;;;;;;;;;5025151;28;19921;-57
2021/12/28 13:03:50;;;;;;;6.95;4.47;;;;;;;;;;5013003;28;20032;-57
2021/12/28 13:06:35;;;;;;;9.70;4.40;;;;;;;;;;5032726;28;20025;-57
2021/12/28 13:09:00;;;;;;;5.40;4.00;;;;;;;;;;5014977;28;20039;-56
2021/12/28 13:11:35;;;;;;;6.93;4.38;;;;;;;;;;5012642;28;20037;-57
2021/12/28 13:14:03;;;;;;;7.45;4.32;;;;;;;;;;5031125;28;20039;-57
2021/12/28 13:16:36;;;;;;;9.15;4.10;;;;;;;;;;5031211;28;20469;-57
2021/12/28 13:19:15;;;;;;;10.45;4.90;;;;;;;;;;5027514;28;20055;-58
2021/12/28 13:21:54;;;;;;;8.15;4.07;;;;;;;;;;5027984;28;20073;-58
2021/12/28 13:24:24;;;;;;;7.55;4.38;;;;;;;;;;5032347;28;20032;-58
2021/12/28 13:26:56;;;;;;;8.02;4.63;;;;;;;;;;5018285;28;20044;-58
2021/12/28 13:29:32;;;;;;;11.85;5.13;;;;;;;;;;5033935;28;20037;-57
2021/12/28 13:32:10;;;;;;;9.75;4.75;;;;;;;;;;5027732;28;20112;-57
2021/12/28 13:34:54;;;;;;;7.72;4.55;;;;;;;;;;5029674;28;20058;-57
2021/12/28 13:37:27;;;;;;;9.32;4.70;;;;;;;;;;5033645;28;20039;-57
2021/12/28 13:39:57;;;;;;;6.75;4.68;;;;;;;;;;5030392;28;20021;-57
2021/12/28 13:42:25;;;;;;;12.13;5.72;;;;;;;;;;5029212;28;20026;-57
2021/12/28 13:44:53;;;;;;;7.15;5.03;;;;;;;;;;5015304;28;20108;-56
2021/12/28 13:47:19;;;;;;;13.20;5.88;;;;;;;;;;5029349;28;20028;-56
2021/12/28 13:50:04;;;;;;;6.75;4.43;;;;;;;;;;5014942;28;20037;-56
2021/12/28 13:52:59;;;;;;;9.57;5.35;;;;;;;;;;5031942;28;20058;-57
2021/12/28 13:55:29;;;;;;;9.32;5.75;;;;;;;;;;5028029;28;20048;-56
2021/12/28 13:57:58;;;;;;;9.05;5.45;;;;;;;;;;5028999;28;21000;-57
2021/12/28 14:00:34;;;;;;;9.07;5.57;;;;;;;;;;5029588;28;20625;-57
2021/12/28 14:03:03;;;;;;;12.95;5.85;;;;;;;;;;5024665;28;20068;-59
2021/12/28 14:05:30;;;;;;;10.32;6.50;;;;;;;;;;5035327;28;20021;-57
2021/12/28 14:07:56;;;;;;;8.93;6.03;;;;;;;;;;5032435;28;20036;-57
2021/12/28 14:10:28;;;;;;;10.13;6.18;;;;;;;;;;5017914;28;20061;-57
2021/12/28 14:13:02;;;;;;;11.00;6.78;;;;;;;;;;5030807;28;20080;-57
2021/12/28 14:15:28;;;;;;;12.20;6.63;;;;;;;;;;5030030;28;20036;-57
2021/12/28 14:17:53;;;;;;;11.43;6.60;;;;;;;;;;5030946;28;20037;-58
2021/12/28 14:20:28;;;;;;;12.20;6.82;;;;;;;;;;4999718;28;20028;-58
2021/12/28 14:22:56;;;;;;;15.00;8.13;;;;;;;;;;5012074;28;20040;-56
2021/12/28 14:25:21;;;;;;;14.50;7.32;;;;;;;;;;5030524;28;20044;-58
2021/12/28 14:27:56;;;;;;;12.35;7.60;;;;;;;;;;5015599;28;20497;-58
2021/12/28 14:30:23;;;;;;;12.80;7.82;;;;;;;;;;5031651;28;20032;-58
2021/12/28 14:32:52;;;;;;;15.60;7.38;;;;;;;;;;5032577;28;20522;-59
2021/12/28 14:35:29;;;;;;;11.07;7.25;;;;;;;;;;5014520;28;20112;-58
2021/12/28 14:38:08;;;;;;;15.73;7.72;;;;;;;;;;5031645;28;20092;-58
2021/12/28 14:40:34;;;;;;;10.77;6.15;;;;;;;;;;5030753;28;20034;-58
2021/12/28 14:43:08;;;;;;;9.82;6.57;;;;;;;;;;5011915;28;20025;-58
2021/12/28 14:45:36;;;;;;;9.07;4.93;;;;;;;;;;5032151;28;20247;-58